Sunday, December 21, 2014
00:25 UTC
  |  Log In   |  Register Free
Airport Search:

Pearson Field Airport
(KVUO)

Pearson Field Airport Diagram
No Airport Diagram Available

FAA data valid effective November 13, 2014 - January 08, 2015 (unless otherwise noted).

 
 
 
 
 
 
 
 
 
 
 
 
 
 

Current Aviation Weather for Pearson Field Airport (KVUO)

The most recent METAR observation for KVUO was updated at: 2122
METAR Summary (Translated METAR)
KVUO
182053Z AUTO 11013KT 10SM OVC037 08/04 A2988 RMK AO2 SLP119 60000 T00780044 58029
KPDX
182053Z 11013KT 10SM OVC041 08/06 A2989 RMK AO2 SLP120 60001 T00780056 58029
(3.1 nm SE from KVUO)
KTTD
182053Z 08020G27KT 10SM FEW037 OVC044 08/04 A2988 RMK AO2 PK WND 09030/2019 SLP119 60000 T00780039 58028
(11.5 nm SE from KVUO)
TAF Summary (Translated TAF)
KPDX
(3.1 nm SE from KVUO)
202029Z 2020/2118 11012KT 6SM -RA BR SCT010 OVC015 FM202300 18014G20KT 3SM RADZ BR BKN012 OVC025 FM210600 22013KT 5SM -RA BR BKN015 OVC030
KTTD
(11.5 nm SE from KVUO)
202026Z 2020/2118 10013KT 6SM -RA BR BKN025 OVC040 FM202100 20011G19KT 4SM RADZ BR BKN015 OVC030 FM210500 20015G25KT 5SM -RA BR OVC015
  Airport Weather Conditions for KVUO

 Current Weather at VUO
54° F
Light Rain
Variable winds at 5.8 mph
VUO NOAA Radar

Pressure: 29.64 in
Humidity: 87%
Wind: Variable at 5.8 MPH (5 KT)
Dew Point: 50.0°F
Visibility: 10.00 mi


Airport Weather Forecast for KVUO

Translated METAR and TAF for KVUO
Translated METAR for KVUO (0026 UTC 21 December 2014)
found at http://aviationweather.gov/adds/metars/
 
METAR text: KVUO 202353Z AUTO VRB05KT 10SM -RA OVC011 12/10 A2964 RMK AO2 SLP038 P0003 60042 T01220100 10122 20078 55002
Conditions at: KVUO (VANCOUVER , WA, US) observed 2353 UTC 20 December 2014
Temperature: 12.2°C (54°F)
Dewpoint: 10.0°C (50°F) [RH = 86%]
Pressure (altimeter): 29.64 inches Hg (1003.8 mb)
[Sea-level pressure: 1003.8 mb]
Winds: variable direction winds at 6 MPH (5 knots; 2.6 m/s)
Visibility: 10 or more miles (16+ km)
Ceiling: 1100 feet AGL
Clouds: overcast cloud deck at 1100 feet AGL
Weather: -RA  (light rain)
Translated TAF for KVUO

There is no translated TAF available for this airport

Find All Airport Services Find A Hotel Find A Rental Car Find A Golf Course Find A Restaurant $100 Hamburger



FBO's on the Field
FBO Company Facility Photos Services Transportation Aviation Fuel Prices: Prices include tax
Catering Weather Repair Courtesy Rental Type 100LL JetA JetA+ MOGAS 8087
 
Aero Maintenance Inc

This FBO has not yet been rated
FS:Epic
Last Updated: Dec-19
Login to update fuel prices
SS:
Contact Aero Maintenance IncMore FBO Information
 
Add another FBO Facility Photos Catering Weather Repair Courtesy Rental Type 100LL JetA JetA+ MOGAS 8087
Services Transportation Aviation Fuel Prices: Prices include tax


model-print
model-print
model-print
model-print